createdAt,value
2023-04-30T00:00:18.218Z,11.10
2023-04-30T00:05:40.903Z,10.90
2023-04-30T00:10:43.389Z,9.90
2023-04-30T00:15:46.114Z,9.90
2023-04-30T00:20:48.804Z,9.40
2023-04-30T00:25:51.538Z,9.30
2023-04-30T00:30:54.185Z,9.20
2023-04-30T00:35:56.964Z,9.20
2023-04-30T00:40:59.722Z,9.30
2023-04-30T00:46:03.944Z,9.20
2023-04-30T00:51:09.830Z,8.80
2023-04-30T00:56:16.621Z,8.80
2023-04-30T01:01:19.819Z,8.60
2023-04-30T01:06:23.065Z,8.50
2023-04-30T01:11:44.441Z,8.20
2023-04-30T01:17:16.481Z,8.10
2023-04-30T01:22:28.161Z,7.90
2023-04-30T01:27:49.742Z,7.90
2023-04-30T01:32:52.639Z,7.80
2023-04-30T01:38:10.893Z,7.70
2023-04-30T01:43:52.847Z,7.70
2023-04-30T01:48:59.786Z,7.70
2023-04-30T01:54:18.218Z,7.70
2023-04-30T01:59:21.797Z,7.60
2023-04-30T02:09:27.751Z,7.70
2023-04-30T02:14:31.873Z,7.70
2023-04-30T02:24:37.878Z,7.70
2023-04-30T02:29:40.432Z,7.70
2023-04-30T02:34:45.927Z,7.70
2023-04-30T02:39:52.392Z,7.70
2023-04-30T02:44:55.169Z,7.60
2023-04-30T02:49:57.743Z,7.60
2023-04-30T02:55:00.484Z,7.60
2023-04-30T03:00:03.793Z,7.30
2023-04-30T03:05:06.748Z,7.10
2023-04-30T03:10:09.988Z,7.00
2023-04-30T03:15:12.534Z,6.70
2023-04-30T03:20:15.094Z,6.40
2023-04-30T03:45:29.699Z,5.90
2023-04-30T03:50:32.358Z,6.20
2023-04-30T04:00:41.680Z,7.20
2023-04-30T04:05:44.857Z,4.60
2023-04-30T04:10:47.612Z,8.80
2023-04-30T04:15:50.290Z,9.60
2023-04-30T04:20:52.884Z,10.20
2023-04-30T04:25:57.545Z,10.40
2023-04-30T04:31:00.665Z,10.70
2023-04-30T04:36:03.842Z,11.10
2023-04-30T04:41:06.396Z,11.90
2023-04-30T04:46:10.091Z,12.10
2023-04-30T04:51:13.844Z,12.60
2023-04-30T04:56:16.715Z,12.90
2023-04-30T05:01:19.676Z,13.20
2023-04-30T05:06:22.958Z,12.80
2023-04-30T05:11:25.816Z,12.80
2023-04-30T05:16:28.645Z,12.40
2023-04-30T05:21:32.114Z,13.90
2023-04-30T05:26:34.606Z,13.70
2023-04-30T05:31:37.316Z,13.30
2023-04-30T05:36:39.833Z,13.20
2023-04-30T05:41:42.762Z,12.80
2023-04-30T05:46:45.466Z,12.20
2023-04-30T05:51:48.189Z,11.60
2023-04-30T05:56:50.844Z,9.90
2023-04-30T06:01:53.530Z,9.40
2023-04-30T06:06:56.344Z,9.60
2023-04-30T06:11:59.047Z,9.70
2023-04-30T06:17:02.074Z,9.30
2023-04-30T06:22:05.094Z,9.40
2023-04-30T06:27:07.675Z,9.50
2023-04-30T06:32:10.452Z,9.50
2023-04-30T06:37:12.939Z,9.80
2023-04-30T06:42:15.428Z,9.60
2023-04-30T06:47:18.055Z,9.70
2023-04-30T06:52:20.815Z,9.70
2023-04-30T06:57:23.334Z,9.80
2023-04-30T07:02:26.128Z,9.60
2023-04-30T07:07:29.017Z,9.60
2023-04-30T07:12:31.776Z,9.80
2023-04-30T07:17:35.324Z,10.20
2023-04-30T07:22:38.073Z,10.20
2023-04-30T07:27:41.003Z,10.40
2023-04-30T07:32:43.775Z,10.60
2023-04-30T07:37:46.614Z,10.70
2023-04-30T07:42:49.238Z,11.00
2023-04-30T07:47:52.720Z,11.00
2023-04-30T07:52:55.346Z,10.90
2023-04-30T07:57:58.832Z,10.50
2023-04-30T08:03:01.870Z,10.80
2023-04-30T08:08:04.886Z,10.60
2023-04-30T08:13:07.729Z,10.50
2023-04-30T08:18:10.397Z,10.70
2023-04-30T08:23:13.082Z,11.10
2023-04-30T08:28:16.208Z,11.30
2023-04-30T08:33:19.045Z,10.80
2023-04-30T08:38:21.704Z,10.80
2023-04-30T08:43:24.540Z,10.90
2023-04-30T08:48:28.383Z,10.90
2023-04-30T08:53:40.585Z,10.80
2023-04-30T08:58:43.896Z,10.90
2023-04-30T09:03:46.618Z,11.10
2023-04-30T09:08:50.351Z,11.10
2023-04-30T09:13:58.979Z,11.30
2023-04-30T09:19:04.365Z,11.30
2023-04-30T09:24:07.041Z,11.30
2023-04-30T09:29:10.447Z,11.30
2023-04-30T09:34:13.962Z,11.10
2023-04-30T09:39:18.201Z,11.30
2023-04-30T09:44:27.822Z,11.10
2023-04-30T09:49:30.582Z,11.20
2023-04-30T09:54:33.111Z,11.50
2023-04-30T09:59:37.904Z,11.30
2023-04-30T10:04:45.071Z,11.40
2023-04-30T10:10:10.103Z,11.50
2023-04-30T10:15:19.993Z,11.60
2023-04-30T10:20:24.891Z,11.60
2023-04-30T10:25:28.973Z,11.40
2023-04-30T10:30:32.814Z,11.50
2023-04-30T10:35:51.157Z,11.70
2023-04-30T10:41:03.897Z,11.70
2023-04-30T10:46:08.313Z,11.90
2023-04-30T10:51:10.967Z,11.80
2023-04-30T10:56:13.429Z,12.10
2023-04-30T11:01:17.485Z,12.10
2023-04-30T11:06:26.646Z,12.00
2023-04-30T11:11:34.179Z,12.10
2023-04-30T11:16:37.180Z,12.20
2023-04-30T11:22:03.091Z,12.30
2023-04-30T11:27:06.419Z,12.30
2023-04-30T11:32:10.978Z,12.30
2023-04-30T11:37:18.931Z,12.30
2023-04-30T11:42:22.047Z,12.40
2023-04-30T11:47:24.711Z,12.40
2023-04-30T11:52:27.375Z,12.20
2023-04-30T11:57:40.694Z,12.60
2023-04-30T12:02:45.834Z,12.40
2023-04-30T12:07:56.267Z,12.40
2023-04-30T12:12:58.935Z,12.30
2023-04-30T12:18:15.462Z,12.50
2023-04-30T12:23:19.313Z,12.60
2023-04-30T12:28:23.949Z,12.80
2023-04-30T12:33:31.446Z,12.70
2023-04-30T12:38:34.111Z,12.60
2023-04-30T12:43:36.648Z,12.90
2023-04-30T12:48:45.758Z,12.80
2023-04-30T12:53:48.376Z,12.80
2023-04-30T12:58:51.320Z,12.90
2023-04-30T13:03:54.264Z,12.90
2023-04-30T13:08:58.412Z,13.00
2023-04-30T13:14:01.660Z,13.00
2023-04-30T13:19:05.306Z,13.10
2023-04-30T13:24:17.652Z,13.30
2023-04-30T13:29:23.188Z,13.20
2023-04-30T13:34:25.678Z,13.40
2023-04-30T13:39:29.427Z,13.30
2023-04-30T13:44:33.831Z,13.20
2023-04-30T13:49:36.475Z,13.20
2023-04-30T13:54:39.317Z,13.20
2023-04-30T13:59:42.089Z,13.30
2023-04-30T14:04:51.712Z,13.10
2023-04-30T14:10:01.380Z,13.10
2023-04-30T14:15:04.383Z,13.20
2023-04-30T14:20:08.134Z,13.30
2023-04-30T14:25:10.877Z,13.30
2023-04-30T14:30:13.810Z,13.20
2023-04-30T14:35:19.005Z,13.00
2023-04-30T14:40:21.807Z,13.00
2023-04-30T14:45:24.435Z,13.10
2023-04-30T14:50:26.888Z,13.10
2023-04-30T14:55:29.496Z,13.10
2023-04-30T15:00:33.312Z,13.00
2023-04-30T15:05:36.599Z,13.20
2023-04-30T15:10:39.198Z,13.20
2023-04-30T15:15:42.245Z,13.10
2023-04-30T15:20:44.744Z,13.10
2023-04-30T15:25:47.503Z,13.00
2023-04-30T15:30:51.691Z,12.90
2023-04-30T15:35:54.964Z,12.90
2023-04-30T15:40:57.567Z,12.90
2023-04-30T15:46:00.720Z,13.00
2023-04-30T15:51:03.668Z,13.00
2023-04-30T15:56:06.404Z,12.90
2023-04-30T16:01:09.165Z,12.80
2023-04-30T16:06:11.758Z,12.70
2023-04-30T16:11:14.666Z,12.60
2023-04-30T16:16:17.497Z,12.60
2023-04-30T16:21:21.034Z,12.60
2023-04-30T16:26:23.526Z,12.50
2023-04-30T16:31:26.102Z,12.40
2023-04-30T16:36:28.645Z,12.30
2023-04-30T16:41:31.182Z,12.20
2023-04-30T16:46:33.811Z,12.10
2023-04-30T16:51:36.379Z,11.90
2023-04-30T16:56:38.830Z,11.80
2023-04-30T17:01:41.500Z,12.40
2023-04-30T17:06:44.226Z,11.90
2023-04-30T17:11:47.116Z,11.70
2023-04-30T17:16:49.650Z,11.50
2023-04-30T17:21:52.342Z,11.20
2023-04-30T17:26:55.153Z,11.00
2023-04-30T17:31:57.773Z,10.60
2023-04-30T17:37:00.584Z,10.40
2023-04-30T17:42:03.432Z,10.40
2023-04-30T17:47:07.045Z,10.10
2023-04-30T17:52:10.451Z,9.70
2023-04-30T17:57:12.983Z,9.40
2023-04-30T18:02:15.612Z,8.80
2023-04-30T18:07:18.319Z,8.30
2023-04-30T18:12:20.948Z,7.90
2023-04-30T18:17:23.963Z,7.40
2023-04-30T18:22:26.411Z,6.70
2023-04-30T18:27:29.192Z,6.30
2023-04-30T18:32:31.754Z,6.20
2023-04-30T18:37:34.474Z,5.90
2023-04-30T18:42:38.576Z,5.10
2023-04-30T18:47:41.652Z,4.70
2023-04-30T19:02:53.125Z,4.30
2023-04-30T19:07:55.820Z,4.10
2023-04-30T19:18:01.434Z,3.70
2023-04-30T19:28:06.984Z,3.60
2023-04-30T19:33:09.611Z,3.30
2023-04-30T19:43:15.571Z,3.10
2023-04-30T19:48:18.782Z,3.00
2023-04-30T19:53:22.108Z,2.90
2023-04-30T20:49:04.255Z,1.70
2023-04-30T20:59:12.011Z,2.00
2023-04-30T21:04:15.608Z,2.00
2023-04-30T21:24:30.775Z,1.30
2023-04-30T21:34:36.475Z,1.00
2023-04-30T21:39:39.035Z,0.80
2023-04-30T21:44:41.464Z,0.80
2023-04-30T21:49:44.313Z,0.80
2023-04-30T21:54:50.051Z,0.80
2023-04-30T22:15:03.748Z,0.30
2023-04-30T22:20:08.471Z,0.30
2023-04-30T22:35:18.129Z,0.10
2023-04-30T22:40:21.315Z,0.20
2023-04-30T22:55:31.225Z,0.00
2023-04-30T23:05:37.085Z,-0.20
2023-04-30T23:25:50.790Z,-0.50
2023-04-30T23:30:58.494Z,-0.20
2023-04-30T23:36:00.937Z,0.00
2023-04-30T23:41:03.716Z,0.00
2023-04-30T23:56:14.255Z,-0.60
